createdAt,value
2022-12-28T00:01:04.998Z,25.77
2022-12-28T00:03:31.553Z,19.50
2022-12-28T00:05:58.312Z,18.03
2022-12-28T00:08:24.827Z,19.30
2022-12-28T00:11:08.121Z,16.93
2022-12-28T00:13:36.973Z,15.53
2022-12-28T00:16:07.673Z,15.40
2022-12-28T00:18:35.222Z,16.63
2022-12-28T00:21:01.874Z,15.07
2022-12-28T00:23:28.407Z,15.57
2022-12-28T00:25:54.950Z,17.33
2022-12-28T00:28:21.579Z,19.63
2022-12-28T00:30:48.207Z,18.47
2022-12-28T00:33:14.946Z,24.23
2022-12-28T00:35:41.437Z,22.33
2022-12-28T00:38:08.177Z,22.83
2022-12-28T00:40:34.787Z,22.83
2022-12-28T00:43:01.708Z,22.87
2022-12-28T00:45:28.305Z,23.23
2022-12-28T00:47:54.922Z,22.27
2022-12-28T00:50:21.512Z,18.80
2022-12-28T00:52:47.992Z,21.33
2022-12-28T00:55:14.569Z,18.97
2022-12-28T00:57:41.247Z,17.93
2022-12-28T01:00:08.126Z,13.97
2022-12-28T01:02:34.618Z,19.53
2022-12-28T01:05:01.125Z,17.13
2022-12-28T01:07:27.605Z,18.50
2022-12-28T01:09:54.113Z,14.90
2022-12-28T01:12:20.642Z,15.70
2022-12-28T01:14:47.133Z,17.47
2022-12-28T01:17:13.602Z,18.37
2022-12-28T01:19:40.097Z,23.50
2022-12-28T01:22:06.806Z,21.40
2022-12-28T01:24:33.427Z,19.70
2022-12-28T01:26:59.886Z,17.27
2022-12-28T01:29:26.378Z,23.53
2022-12-28T01:31:53.035Z,21.07
2022-12-28T01:34:19.564Z,24.63
2022-12-28T01:36:46.133Z,24.27
2022-12-28T01:39:12.630Z,25.43
2022-12-28T01:41:40.025Z,28.27
2022-12-28T01:44:07.307Z,24.80
2022-12-28T01:46:50.162Z,25.90
2022-12-28T01:49:18.148Z,23.93
2022-12-28T01:51:54.697Z,27.90
2022-12-28T01:54:21.276Z,23.30
2022-12-28T01:56:47.795Z,27.20
2022-12-28T01:59:14.409Z,28.13
2022-12-28T02:01:40.992Z,24.53
2022-12-28T02:04:07.605Z,30.33
2022-12-28T02:06:34.098Z,31.47
2022-12-28T02:09:02.917Z,33.87
2022-12-28T02:11:29.480Z,32.63
2022-12-28T02:13:56.046Z,30.60
2022-12-28T02:16:22.580Z,28.50
2022-12-28T02:18:49.264Z,28.63
2022-12-28T02:21:16.005Z,27.87
2022-12-28T02:23:45.350Z,28.70
2022-12-28T02:26:11.832Z,26.50
2022-12-28T02:28:57.073Z,33.07
2022-12-28T02:31:26.616Z,24.85
2022-12-28T02:34:05.581Z,29.03
2022-12-28T02:36:33.889Z,31.80
2022-12-28T02:39:03.310Z,32.60
2022-12-28T02:41:29.819Z,32.77
2022-12-28T02:43:56.293Z,29.73
2022-12-28T02:46:42.120Z,31.93
2022-12-28T02:49:35.138Z,30.03
2022-12-28T02:52:07.970Z,25.33
2022-12-28T02:54:59.035Z,21.90
2022-12-28T02:57:41.108Z,24.27
2022-12-28T03:00:11.869Z,21.67
2022-12-28T03:02:57.247Z,24.73
2022-12-28T03:05:51.690Z,21.93
2022-12-28T03:08:21.721Z,24.30
2022-12-28T03:10:52.736Z,24.90
2022-12-28T03:13:37.811Z,21.80
2022-12-28T03:16:05.617Z,23.73
2022-12-28T03:18:51.389Z,22.60
2022-12-28T03:21:36.598Z,21.60
2022-12-28T03:24:21.919Z,17.43
2022-12-28T03:27:06.980Z,24.43
2022-12-28T03:29:53.249Z,24.03
2022-12-28T03:32:20.087Z,26.63
2022-12-28T03:34:46.583Z,24.85
2022-12-28T03:37:26.643Z,20.37
2022-12-28T03:40:16.373Z,21.67
2022-12-28T03:43:04.659Z,21.47
2022-12-28T03:45:45.882Z,25.97
2022-12-28T03:48:14.105Z,24.37
2022-12-28T03:50:41.735Z,20.50
2022-12-28T03:53:08.783Z,15.40
2022-12-28T03:55:38.095Z,22.95
2022-12-28T03:58:05.226Z,17.60
2022-12-28T04:00:31.773Z,13.17
2022-12-28T04:02:58.336Z,11.93
2022-12-28T04:05:24.965Z,11.90
2022-12-28T04:07:51.454Z,8.17
2022-12-28T04:10:18.001Z,9.17
2022-12-28T04:12:45.121Z,13.23
2022-12-28T04:15:11.676Z,9.80
2022-12-28T04:17:38.184Z,12.37
2022-12-28T04:20:05.236Z,10.73
2022-12-28T04:22:31.807Z,9.57
2022-12-28T04:24:58.286Z,14.03
2022-12-28T04:27:25.039Z,7.07
2022-12-28T04:29:51.603Z,12.23
2022-12-28T04:32:18.176Z,13.17
2022-12-28T04:34:48.679Z,7.40
2022-12-28T04:37:15.570Z,9.27
2022-12-28T04:39:55.242Z,11.30
2022-12-28T04:42:23.987Z,7.60
2022-12-28T04:44:50.490Z,8.33
2022-12-28T04:47:16.975Z,9.10
2022-12-28T04:49:43.492Z,7.37
2022-12-28T04:52:10.000Z,7.00
2022-12-28T04:54:36.586Z,12.07
2022-12-28T04:57:03.230Z,9.63
2022-12-28T04:59:29.701Z,9.00
2022-12-28T05:01:56.350Z,10.20
2022-12-28T05:04:23.126Z,7.63
2022-12-28T05:06:49.768Z,7.50
2022-12-28T05:09:16.289Z,11.80
2022-12-28T05:11:42.752Z,11.10
2022-12-28T05:14:09.243Z,9.37
2022-12-28T05:16:35.775Z,6.33
2022-12-28T05:19:02.374Z,8.50
2022-12-28T05:21:28.976Z,6.93
2022-12-28T05:23:55.697Z,7.07
2022-12-28T05:26:23.143Z,6.70
2022-12-28T05:28:49.798Z,5.87
2022-12-28T05:31:20.266Z,9.63
2022-12-28T05:33:47.709Z,7.03
2022-12-28T05:36:15.249Z,9.37
2022-12-28T05:38:41.896Z,7.05
2022-12-28T05:41:15.380Z,14.70
2022-12-28T05:43:42.078Z,10.53
2022-12-28T05:46:12.856Z,8.07
2022-12-28T05:48:39.898Z,7.97
2022-12-28T05:51:08.192Z,12.00
2022-12-28T05:53:34.727Z,8.73
2022-12-28T05:56:05.710Z,8.90
2022-12-28T05:58:34.851Z,10.27
2022-12-28T06:01:14.993Z,12.07
2022-12-28T06:03:41.698Z,16.37
2022-12-28T06:06:11.427Z,10.20
2022-12-28T06:08:38.215Z,11.47
2022-12-28T06:11:05.585Z,12.20
2022-12-28T06:13:32.390Z,13.77
2022-12-28T06:15:58.948Z,14.50
2022-12-28T06:18:28.757Z,12.37
2022-12-28T06:20:57.125Z,13.30
2022-12-28T06:23:23.914Z,12.10
2022-12-28T06:25:50.429Z,12.97
2022-12-28T06:28:16.895Z,11.27
2022-12-28T06:30:48.982Z,11.97
2022-12-28T06:33:18.823Z,11.03
2022-12-28T06:35:45.296Z,10.53
2022-12-28T06:38:11.771Z,10.77
2022-12-28T06:41:11.536Z,11.43
2022-12-28T06:43:24.811Z,9.30
2022-12-28T06:45:55.502Z,9.67
2022-12-28T06:48:22.099Z,8.47
2022-12-28T06:50:58.259Z,7.13
2022-12-28T06:53:28.432Z,9.87
2022-12-28T06:55:58.591Z,7.17
2022-12-28T06:58:25.494Z,7.87
2022-12-28T07:00:52.060Z,8.93
2022-12-28T07:03:18.655Z,7.77
2022-12-28T07:05:45.264Z,8.20
2022-12-28T07:08:12.912Z,6.27
2022-12-28T07:10:39.675Z,7.90
2022-12-28T07:13:06.460Z,12.33
2022-12-28T07:15:34.585Z,4.33
2022-12-28T07:18:01.147Z,7.13
2022-12-28T07:20:27.842Z,14.17
2022-12-28T07:22:54.647Z,14.33
2022-12-28T07:25:21.237Z,14.23
2022-12-28T07:27:47.806Z,14.60
2022-12-28T07:30:14.370Z,19.10
2022-12-28T07:32:40.947Z,15.57
2022-12-28T07:35:07.703Z,16.47
2022-12-28T07:37:34.295Z,24.03
2022-12-28T07:40:00.893Z,20.73
2022-12-28T07:42:28.887Z,20.13
2022-12-28T07:44:55.362Z,21.43
2022-12-28T07:47:21.929Z,17.33
2022-12-28T07:49:48.439Z,14.70
2022-12-28T07:52:14.937Z,16.67
2022-12-28T07:54:41.394Z,11.73
2022-12-28T07:57:07.894Z,10.87
2022-12-28T07:59:34.364Z,15.10
2022-12-28T08:02:00.969Z,16.77
2022-12-28T08:04:27.504Z,16.03
2022-12-28T08:06:54.259Z,22.33
2022-12-28T08:09:20.754Z,12.97
2022-12-28T08:11:48.651Z,10.90
2022-12-28T08:14:15.124Z,12.77
2022-12-28T08:16:42.366Z,12.23
2022-12-28T08:19:08.964Z,12.03
2022-12-28T08:21:42.027Z,10.80
2022-12-28T08:24:08.694Z,11.67
2022-12-28T08:26:36.044Z,15.57
2022-12-28T08:29:03.468Z,13.73
2022-12-28T08:31:30.619Z,17.63
2022-12-28T08:33:57.548Z,13.40
2022-12-28T08:36:24.111Z,12.43
2022-12-28T08:38:50.716Z,16.47
2022-12-28T08:41:18.055Z,17.23
2022-12-28T08:43:44.819Z,13.67
2022-12-28T08:46:12.430Z,13.47
2022-12-28T08:48:39.150Z,13.77
2022-12-28T08:51:05.789Z,11.93
2022-12-28T08:53:32.283Z,11.00
2022-12-28T08:56:06.888Z,16.27
2022-12-28T08:58:33.574Z,9.53
2022-12-28T09:01:09.793Z,13.40
2022-12-28T09:03:37.325Z,10.27
2022-12-28T09:06:08.027Z,11.60
2022-12-28T09:08:34.530Z,14.00
2022-12-28T09:11:01.376Z,16.10
2022-12-28T09:13:28.102Z,13.23
2022-12-28T09:15:58.552Z,20.53
2022-12-28T09:18:25.134Z,18.70
2022-12-28T09:20:51.652Z,19.50
2022-12-28T09:23:18.214Z,14.77
2022-12-28T09:25:44.719Z,15.20
2022-12-28T09:28:11.344Z,16.50
2022-12-28T09:30:37.884Z,16.13
2022-12-28T09:33:23.128Z,15.97
2022-12-28T09:35:49.603Z,14.77
2022-12-28T09:38:16.108Z,12.73
2022-12-28T09:40:42.634Z,10.83
2022-12-28T09:43:09.931Z,12.67
2022-12-28T09:45:36.395Z,12.80
2022-12-28T09:48:04.341Z,10.00
2022-12-28T09:50:31.664Z,10.90
2022-12-28T09:52:58.253Z,10.20
2022-12-28T09:55:24.739Z,9.40
2022-12-28T09:57:52.402Z,9.47
2022-12-28T10:00:23.010Z,10.27
2022-12-28T10:02:51.122Z,18.20
2022-12-28T10:05:17.730Z,13.73
2022-12-28T10:07:44.201Z,13.70
2022-12-28T10:10:13.739Z,14.13
2022-12-28T10:12:41.578Z,10.30
2022-12-28T10:15:09.865Z,10.70
2022-12-28T10:17:36.384Z,12.30
2022-12-28T10:20:02.877Z,10.20
2022-12-28T10:22:38.141Z,9.20
2022-12-28T10:25:12.726Z,14.07
2022-12-28T10:27:39.228Z,9.67
2022-12-28T10:30:07.382Z,8.20
2022-12-28T10:32:50.431Z,14.13
2022-12-28T10:35:23.258Z,15.70
2022-12-28T10:37:50.079Z,15.97
2022-12-28T10:40:24.247Z,16.50
2022-12-28T10:42:52.149Z,12.47
2022-12-28T10:45:22.557Z,15.10
2022-12-28T10:47:50.118Z,13.80
2022-12-28T10:50:37.530Z,13.07
2022-12-28T10:53:25.648Z,11.77
2022-12-28T10:56:21.511Z,15.13
2022-12-28T10:58:48.675Z,13.20
2022-12-28T11:01:15.332Z,11.60
2022-12-28T11:03:57.034Z,13.50
2022-12-28T11:06:27.602Z,13.23
2022-12-28T11:09:13.009Z,13.10
2022-12-28T11:11:39.644Z,14.10
2022-12-28T11:14:06.861Z,13.83
2022-12-28T11:16:35.050Z,11.20
2022-12-28T11:19:01.615Z,13.90
2022-12-28T11:21:28.088Z,11.67
2022-12-28T11:23:54.575Z,10.63
2022-12-28T11:26:21.194Z,8.07
2022-12-28T11:28:51.893Z,6.23
2022-12-28T11:31:23.007Z,9.00
2022-12-28T11:33:50.765Z,6.60
2022-12-28T11:36:24.527Z,6.80
2022-12-28T11:38:51.938Z,7.97
2022-12-28T11:41:30.146Z,7.87
2022-12-28T11:44:04.820Z,7.63
2022-12-28T11:46:31.324Z,8.63
2022-12-28T11:49:01.685Z,8.20
2022-12-28T11:51:31.799Z,9.30
2022-12-28T11:53:59.467Z,9.77
2022-12-28T11:56:26.799Z,7.53
2022-12-28T11:58:59.537Z,8.57
2022-12-28T12:01:33.820Z,6.57
2022-12-28T12:04:00.555Z,7.17
2022-12-28T12:06:45.285Z,6.73
2022-12-28T12:09:21.206Z,7.07
2022-12-28T12:11:59.672Z,7.80
2022-12-28T12:14:36.535Z,6.50
2022-12-28T12:17:22.378Z,11.20
2022-12-28T12:19:49.715Z,6.03
2022-12-28T12:22:23.475Z,9.03
2022-12-28T12:25:09.887Z,6.67
2022-12-28T12:27:40.264Z,5.70
2022-12-28T12:30:07.384Z,4.90
2022-12-28T12:32:38.862Z,3.03
2022-12-28T12:35:06.652Z,6.27
2022-12-28T12:37:47.610Z,6.70
2022-12-28T12:40:14.224Z,6.90
2022-12-28T12:42:43.776Z,7.87
2022-12-28T12:45:20.818Z,6.77
2022-12-28T12:48:13.688Z,6.03
2022-12-28T12:50:46.136Z,7.50
2022-12-28T12:53:15.654Z,5.23
2022-12-28T12:55:54.294Z,5.97
2022-12-28T12:58:20.802Z,4.87
2022-12-28T13:00:56.916Z,6.50
2022-12-28T13:03:34.318Z,6.30
2022-12-28T13:06:00.944Z,4.80
2022-12-28T13:08:45.227Z,7.00
2022-12-28T13:11:11.844Z,5.47
2022-12-28T13:13:38.902Z,8.23
2022-12-28T13:16:08.327Z,7.40
2022-12-28T13:18:44.480Z,6.57
2022-12-28T13:21:16.688Z,7.07
2022-12-28T13:23:44.226Z,8.00
2022-12-28T13:26:10.704Z,7.13
2022-12-28T13:28:37.228Z,5.00
2022-12-28T13:31:03.717Z,5.23
2022-12-28T13:33:30.774Z,5.57
2022-12-28T13:36:09.378Z,5.77
2022-12-28T13:38:35.876Z,4.50
2022-12-28T13:41:03.163Z,6.33
2022-12-28T13:43:48.524Z,4.10
2022-12-28T13:46:15.807Z,5.97
2022-12-28T13:48:43.397Z,8.93
2022-12-28T13:51:10.501Z,7.50
2022-12-28T13:53:37.050Z,9.60
2022-12-28T13:56:04.602Z,9.67
2022-12-28T13:58:35.477Z,5.27
2022-12-28T14:01:03.241Z,6.33
2022-12-28T14:03:33.349Z,11.27
2022-12-28T14:06:03.996Z,10.60
2022-12-28T14:08:33.099Z,6.13
2022-12-28T14:10:59.619Z,7.50
2022-12-28T14:13:26.115Z,7.90
2022-12-28T14:15:52.917Z,8.30
2022-12-28T14:18:19.445Z,8.87
2022-12-28T14:20:46.757Z,8.00
2022-12-28T14:23:23.405Z,8.13
2022-12-28T14:25:50.155Z,8.23
2022-12-28T14:28:23.335Z,8.57
2022-12-28T14:30:53.382Z,6.50
2022-12-28T14:36:07.671Z,9.93
2022-12-28T14:38:35.040Z,11.03
2022-12-28T14:41:02.089Z,9.97
2022-12-28T14:43:32.725Z,11.73
2022-12-28T14:46:14.181Z,10.80
2022-12-28T14:48:42.297Z,9.43
2022-12-28T14:51:15.000Z,12.53
2022-12-28T14:53:41.611Z,9.13
2022-12-28T14:56:11.580Z,9.57
2022-12-28T14:58:41.333Z,12.63
2022-12-28T15:01:11.209Z,13.30
2022-12-28T15:03:50.088Z,12.87
2022-12-28T15:06:16.774Z,18.33
2022-12-28T15:08:46.814Z,19.60
2022-12-28T15:11:14.290Z,18.50
2022-12-28T15:13:41.606Z,18.27
2022-12-28T15:16:10.414Z,18.30
2022-12-28T15:18:38.213Z,19.80
2022-12-28T15:21:05.355Z,22.07
2022-12-28T15:23:31.979Z,19.30
2022-12-28T15:25:58.723Z,20.73
2022-12-28T15:28:25.195Z,20.47
2022-12-28T15:30:51.778Z,20.17
2022-12-28T15:33:18.368Z,22.30
2022-12-28T15:35:45.006Z,16.40
2022-12-28T15:38:11.664Z,23.27
2022-12-28T15:40:39.312Z,18.37
2022-12-28T15:43:05.831Z,26.60
2022-12-28T15:45:32.996Z,21.90
2022-12-28T15:47:59.486Z,26.17
2022-12-28T15:50:26.046Z,21.40
2022-12-28T15:52:52.544Z,25.03
2022-12-28T15:55:19.045Z,28.73
2022-12-28T15:57:45.555Z,26.87
2022-12-28T16:00:13.422Z,30.90
2022-12-28T16:02:40.068Z,28.07
2022-12-28T16:05:06.781Z,28.80
2022-12-28T16:07:33.318Z,27.73
2022-12-28T16:09:59.887Z,27.20
2022-12-28T16:12:26.497Z,26.77
2022-12-28T16:14:52.979Z,30.57
2022-12-28T16:17:19.496Z,30.23
2022-12-28T16:19:46.040Z,24.50
2022-12-28T16:22:12.571Z,28.57
2022-12-28T16:24:39.081Z,29.00
2022-12-28T16:27:05.646Z,25.50
2022-12-28T16:29:32.252Z,23.50
2022-12-28T16:31:59.340Z,21.27
2022-12-28T16:34:28.031Z,28.47
2022-12-28T16:36:57.286Z,22.03
2022-12-28T16:39:23.820Z,22.97
2022-12-28T16:41:50.400Z,20.13
2022-12-28T16:44:17.756Z,18.17
2022-12-28T16:46:44.294Z,24.20
2022-12-28T16:49:13.797Z,19.83
2022-12-28T16:51:40.798Z,23.10
2022-12-28T16:54:09.544Z,21.40
2022-12-28T16:56:36.046Z,25.27
2022-12-28T16:59:02.675Z,25.17
2022-12-28T17:01:29.256Z,26.30
2022-12-28T17:04:01.838Z,27.00
2022-12-28T17:06:30.535Z,25.93
2022-12-28T17:08:57.298Z,24.50
2022-12-28T17:11:24.073Z,23.13
2022-12-28T17:13:50.592Z,21.20
2022-12-28T17:16:17.128Z,20.50
2022-12-28T17:18:43.671Z,19.10
2022-12-28T17:21:10.517Z,22.47
2022-12-28T17:23:38.362Z,23.13
2022-12-28T17:26:04.900Z,19.27
2022-12-28T17:28:31.440Z,18.13
2022-12-28T17:31:05.140Z,19.43
2022-12-28T17:33:38.706Z,17.27
2022-12-28T17:36:06.189Z,19.27
2022-12-28T17:38:32.691Z,22.93
2022-12-28T17:40:59.447Z,21.37
2022-12-28T17:43:26.067Z,25.47
2022-12-28T17:45:52.706Z,32.73
2022-12-28T17:48:20.385Z,30.47
2022-12-28T17:50:47.226Z,28.47
2022-12-28T17:53:13.819Z,27.87
2022-12-28T17:55:40.345Z,27.77
2022-12-28T17:58:06.878Z,27.93
2022-12-28T18:00:33.402Z,34.23
2022-12-28T18:03:00.035Z,32.77
2022-12-28T18:05:26.837Z,24.83
2022-12-28T18:07:53.362Z,23.00
2022-12-28T18:10:22.575Z,18.57
2022-12-28T18:12:49.923Z,18.77
2022-12-28T18:15:16.526Z,22.80
2022-12-28T18:17:43.040Z,17.87
2022-12-28T18:20:10.716Z,20.33
2022-12-28T18:22:37.232Z,19.00
2022-12-28T18:25:03.850Z,23.37
2022-12-28T18:27:30.363Z,21.87
2022-12-28T18:29:57.227Z,24.13
2022-12-28T18:32:23.922Z,22.43
2022-12-28T18:34:50.427Z,23.33
2022-12-28T18:37:17.202Z,22.10
2022-12-28T18:39:43.813Z,19.37
2022-12-28T18:42:10.351Z,19.13
2022-12-28T18:44:36.874Z,18.20
2022-12-28T18:47:03.427Z,22.20
2022-12-28T18:49:30.124Z,17.00
2022-12-28T18:51:56.646Z,19.83
2022-12-28T18:54:23.304Z,17.37
2022-12-28T18:56:49.846Z,19.67
2022-12-28T18:59:16.364Z,19.13
2022-12-28T19:04:30.191Z,15.37
2022-12-28T19:06:56.958Z,13.03
2022-12-28T19:09:23.458Z,13.43
2022-12-28T19:11:49.961Z,12.43
2022-12-28T19:14:16.472Z,11.87
2022-12-28T19:16:44.275Z,13.70
2022-12-28T19:19:11.595Z,12.43
2022-12-28T19:21:41.618Z,12.83
2022-12-28T19:24:15.534Z,12.43
2022-12-28T19:26:42.260Z,15.87
2022-12-28T19:29:10.173Z,19.57
2022-12-28T19:31:36.925Z,14.00
2022-12-28T19:34:03.486Z,13.97
2022-12-28T19:36:30.103Z,10.50
2022-12-28T19:38:56.738Z,10.47
2022-12-28T19:41:23.425Z,10.83
2022-12-28T19:43:50.269Z,10.03
2022-12-28T19:46:17.997Z,7.27
2022-12-28T19:48:44.610Z,11.80
2022-12-28T19:51:11.247Z,11.83
2022-12-28T19:53:37.753Z,10.90
2022-12-28T19:56:05.392Z,13.93
2022-12-28T19:58:32.382Z,8.07
2022-12-28T20:01:06.094Z,13.47
2022-12-28T20:03:32.786Z,10.03
2022-12-28T20:06:09.083Z,7.30
2022-12-28T20:08:35.664Z,13.00
2022-12-28T20:11:03.371Z,13.63
2022-12-28T20:13:33.052Z,10.83
2022-12-28T20:16:00.000Z,12.97
2022-12-28T20:18:26.679Z,9.73
2022-12-28T20:21:18.670Z,9.10
2022-12-28T20:23:39.727Z,8.83
2022-12-28T20:26:06.310Z,8.50
2022-12-28T20:28:33.038Z,7.40
2022-12-28T20:31:00.360Z,8.73
2022-12-28T20:33:26.969Z,7.13
2022-12-28T20:36:03.473Z,10.33
2022-12-28T20:38:29.986Z,6.03
2022-12-28T20:41:03.577Z,5.93
2022-12-28T20:43:30.052Z,6.20
2022-12-28T20:45:56.645Z,10.27
2022-12-28T20:48:23.188Z,8.47
2022-12-28T20:50:51.780Z,13.77
2022-12-28T20:53:18.297Z,14.47
2022-12-28T20:55:44.841Z,16.60
2022-12-28T20:58:11.654Z,18.57
2022-12-28T21:00:39.599Z,15.93
2022-12-28T21:03:06.267Z,20.37
2022-12-28T21:05:32.784Z,20.10
2022-12-28T21:07:59.286Z,16.17
2022-12-28T21:10:25.853Z,13.67
2022-12-28T21:12:52.358Z,11.97
2022-12-28T21:15:18.876Z,11.17
2022-12-28T21:17:45.397Z,13.57
2022-12-28T21:20:12.030Z,11.93
2022-12-28T21:22:38.509Z,12.50
2022-12-28T21:25:05.306Z,8.70
2022-12-28T21:27:31.798Z,9.13
2022-12-28T21:29:58.803Z,10.90
2022-12-28T21:32:25.293Z,10.93
2022-12-28T21:34:51.834Z,10.23
2022-12-28T21:37:36.689Z,10.13
2022-12-28T21:40:04.056Z,12.00
2022-12-28T21:42:30.580Z,10.70
2022-12-28T21:44:57.074Z,10.17
2022-12-28T21:47:23.585Z,10.23
2022-12-28T21:49:51.267Z,11.93
2022-12-28T21:52:17.902Z,6.37
2022-12-28T21:54:44.399Z,7.43
2022-12-28T21:57:11.239Z,7.43
2022-12-28T21:59:37.804Z,8.33
2022-12-28T22:02:27.266Z,7.50
2022-12-28T22:05:20.048Z,6.97
2022-12-28T22:07:46.736Z,5.27
2022-12-28T22:10:31.867Z,7.50
2022-12-28T22:12:58.496Z,5.83
2022-12-28T22:15:44.184Z,5.07
2022-12-28T22:21:04.687Z,5.47
2022-12-28T22:23:34.787Z,5.40
2022-12-28T22:26:01.750Z,7.07
2022-12-28T22:28:28.324Z,6.67
2022-12-28T22:30:54.881Z,6.30
2022-12-28T22:33:21.411Z,7.37
2022-12-28T22:35:47.939Z,6.83
2022-12-28T22:38:14.592Z,7.40
2022-12-28T22:40:41.150Z,16.17
2022-12-28T22:43:07.623Z,12.47
2022-12-28T22:45:34.236Z,14.83
2022-12-28T22:48:00.828Z,12.23
2022-12-28T22:50:27.567Z,12.37
2022-12-28T22:52:54.034Z,8.40
2022-12-28T22:55:20.530Z,9.07
2022-12-28T22:57:46.976Z,8.00
2022-12-28T23:00:13.900Z,8.90
2022-12-28T23:02:40.903Z,6.50
2022-12-28T23:05:07.831Z,7.20
2022-12-28T23:07:36.338Z,11.67
2022-12-28T23:10:02.999Z,7.87
2022-12-28T23:12:29.627Z,9.10
2022-12-28T23:15:14.911Z,8.10
2022-12-28T23:17:41.419Z,6.57
2022-12-28T23:20:28.204Z,9.03
2022-12-28T23:23:13.435Z,8.63
2022-12-28T23:25:58.576Z,8.70
2022-12-28T23:28:25.156Z,6.00
2022-12-28T23:30:51.767Z,5.63
2022-12-28T23:33:18.482Z,5.40
2022-12-28T23:35:45.088Z,6.83
2022-12-28T23:38:11.639Z,6.23
2022-12-28T23:40:41.521Z,6.17
2022-12-28T23:43:08.112Z,8.37
2022-12-28T23:45:34.774Z,6.60
2022-12-28T23:48:01.289Z,6.63
2022-12-28T23:50:27.782Z,8.67
2022-12-28T23:52:54.657Z,5.83
2022-12-28T23:55:21.166Z,7.07
2022-12-28T23:57:47.694Z,5.70
